EPGD/GDN METAR and TAF weather

Enter ICAO airport designator
Station Type Date Time Source
EPGD METAR 2018/07/21 04:00 UTC NOAA

EPGD 210400Z VRB01KT CAVOK 14/12 Q1011


Station Type Date Time Source
EPGD Decoded METAR 2018/07/21 04:00 UTC NOAA

Gdansk-Rebiechowo, Poland (EPGD) 54-23N 018-28E 138M
Jul 21, 2018 - 12:00 AM EDT / 2018.07.21 0400 UTC
Wind: Variable at 1 MPH (1 KT):0
Visibility: greater than 7 mile(s):0
Temperature: 57 F (14 C)
Dew Point: 53 F (12 C)
Relative Humidity: 87%
Pressure (altimeter): 29.85 in. Hg (1011 hPa)
ob: EPGD 210400Z VRB01KT CAVOK 14/12 Q1011
cycle: 4

Station Type Date Time Source
EPGD TAF 2018/07/20 18:33 UTC NOAA

TAF TAF EPGD 201730Z 2018/2118 29010KT CAVOK PROB40
TEMPO 2110/2116 SCT040TCU


Example: see airport list